NAO YSSY-YBNA
Flight info
| Callsign | NAO |
|---|---|
| Flight time | 1h 13m |
| Altitude | 19000 |
| Route | TESAT V140 WLM/N0217F220 V535 UBSON/N0215F210 V535 NICLA/N0211F190 W446 KADSI W196 BNA |
| Aircraft | B350/L-SDFGRW/S |
Departure
| Time | 2026-05-07 03:20 |
|---|---|
| Airport | Sydney Kingsford Smith International Airport (YSSY) |
Arrival
| Time | 2026-05-07 04:34 |
|---|---|
| Airport | Ballina Byron Gateway Airport (YBNA) |
| Time | Latitude | Longitude | Altitude | Speed | Heading |
|---|---|---|---|---|---|
| 2026-05-07 02:19 | -33.93452 | 151.18782 | 26 ft | 0 kts | 189° |
| 2026-05-07 03:03 | -33.93459 | 151.18783 | 26 ft | 4 kts | 150° |
| 2026-05-07 03:03 | -33.93485 | 151.18850 | 26 ft | 12 kts | 151° |
| 2026-05-07 03:03 | -33.93554 | 151.18843 | 28 ft | 10 kts | 188° |
| 2026-05-07 03:03 | -33.93592 | 151.18818 | 26 ft | 2 kts | 242° |
| 2026-05-07 03:04 | -33.93597 | 151.18801 | 28 ft | 5 kts | 249° |
| 2026-05-07 03:04 | -33.93608 | 151.18762 | 26 ft | 5 kts | 255° |
| 2026-05-07 03:04 | -33.93630 | 151.18668 | 26 ft | 16 kts | 255° |
| 2026-05-07 03:04 | -33.93654 | 151.18561 | 26 ft | 11 kts | 253° |
| 2026-05-07 03:05 | -33.93673 | 151.18486 | 26 ft | 8 kts | 253° |
| 2026-05-07 03:05 | -33.93685 | 151.18437 | 26 ft | 5 kts | 254° |
| 2026-05-07 03:05 | -33.93695 | 151.18397 | 26 ft | 5 kts | 253° |
| 2026-05-07 03:05 | -33.93707 | 151.18346 | 26 ft | 7 kts | 256° |
| 2026-05-07 03:06 | -33.93719 | 151.18295 | 26 ft | 5 kts | 254° |
| 2026-05-07 03:06 | -33.93729 | 151.18252 | 26 ft | 8 kts | 254° |
| 2026-05-07 03:06 | -33.93742 | 151.18198 | 26 ft | 6 kts | 255° |
| 2026-05-07 03:06 | -33.93743 | 151.18191 | 26 ft | 0 kts | 255° |
| 2026-05-07 03:09 | -33.93744 | 151.18189 | 26 ft | 4 kts | 255° |
| 2026-05-07 03:09 | -33.93758 | 151.18123 | 26 ft | 8 kts | 255° |
| 2026-05-07 03:09 | -33.93772 | 151.18063 | 26 ft | 11 kts | 253° |
| 2026-05-07 03:10 | -33.93799 | 151.17949 | 26 ft | 14 kts | 254° |
| 2026-05-07 03:10 | -33.93826 | 151.17836 | 26 ft | 13 kts | 253° |
| 2026-05-07 03:10 | -33.93877 | 151.17775 | 27 ft | 12 kts | 168° |
| 2026-05-07 03:10 | -33.93980 | 151.17800 | 26 ft | 18 kts | 167° |
| 2026-05-07 03:11 | -33.94113 | 151.17835 | 25 ft | 21 kts | 169° |
| 2026-05-07 03:11 | -33.94258 | 151.17870 | 26 ft | 22 kts | 166° |
| 2026-05-07 03:11 | -33.94405 | 151.17909 | 26 ft | 22 kts | 168° |
| 2026-05-07 03:11 | -33.94526 | 151.17882 | 27 ft | 17 kts | 168° |
| 2026-05-07 03:12 | -33.94648 | 151.17918 | 26 ft | 19 kts | 168° |
| 2026-05-07 03:12 | -33.94772 | 151.17948 | 26 ft | 18 kts | 167° |
| 2026-05-07 03:12 | -33.94898 | 151.17979 | 26 ft | 18 kts | 169° |
| 2026-05-07 03:12 | -33.95022 | 151.18011 | 27 ft | 18 kts | 169° |
| 2026-05-07 03:13 | -33.95100 | 151.18105 | 27 ft | 19 kts | 78° |
| 2026-05-07 03:13 | -33.95069 | 151.18275 | 27 ft | 22 kts | 77° |
| 2026-05-07 03:13 | -33.95046 | 151.18403 | 27 ft | 7 kts | 77° |
| 2026-05-07 03:13 | -33.95043 | 151.18416 | 27 ft | 0 kts | 78° |
| 2026-05-07 03:14 | -33.95040 | 151.18457 | 27 ft | 12 kts | 97° |
| 2026-05-07 03:14 | -33.95104 | 151.18531 | 27 ft | 14 kts | 136° |
| 2026-05-07 03:14 | -33.95285 | 151.18704 | 27 ft | 19 kts | 159° |
| 2026-05-07 03:15 | -33.95408 | 151.18743 | 26 ft | 18 kts | 167° |
| 2026-05-07 03:15 | -33.95531 | 151.18776 | 26 ft | 18 kts | 168° |
| 2026-05-07 03:15 | -33.95655 | 151.18807 | 29 ft | 18 kts | 168° |
| 2026-05-07 03:15 | -33.95773 | 151.18837 | 26 ft | 18 kts | 167° |
| 2026-05-07 03:16 | -33.95895 | 151.18869 | 26 ft | 18 kts | 168° |
| 2026-05-07 03:16 | -33.96012 | 151.18902 | 26 ft | 18 kts | 167° |
| 2026-05-07 03:16 | -33.96131 | 151.18932 | 26 ft | 18 kts | 167° |
| 2026-05-07 03:16 | -33.96252 | 151.18963 | 26 ft | 18 kts | 168° |
| 2026-05-07 03:17 | -33.96372 | 151.18993 | 26 ft | 18 kts | 168° |
| 2026-05-07 03:17 | -33.96493 | 151.19025 | 26 ft | 18 kts | 167° |
| 2026-05-07 03:17 | -33.96616 | 151.19057 | 27 ft | 18 kts | 168° |
| 2026-05-07 03:17 | -33.96738 | 151.19072 | 26 ft | 16 kts | 192° |
| 2026-05-07 03:18 | -33.96839 | 151.19069 | 26 ft | 15 kts | 169° |
| 2026-05-07 03:18 | -33.96941 | 151.19097 | 26 ft | 16 kts | 168° |
| 2026-05-07 03:18 | -33.97047 | 151.19129 | 26 ft | 14 kts | 132° |
| 2026-05-07 03:18 | -33.97049 | 151.19246 | 27 ft | 16 kts | 78° |
| 2026-05-07 03:19 | -33.97012 | 151.19361 | 22 ft | 7 kts | 356° |
| 2026-05-07 03:19 | -33.97006 | 151.19360 | 21 ft | 0 kts | 346° |
| 2026-05-07 03:19 | -33.96461 | 151.19215 | 23 ft | 115 kts | 347° |
| 2026-05-07 03:20 | -33.95880 | 151.19061 | 155 ft | 137 kts | 346° |
| 2026-05-07 03:20 | -33.94868 | 151.18875 | 684 ft | 161 kts | 343° |
| 2026-05-07 03:20 | -33.93679 | 151.18661 | 1171 ft | 183 kts | 341° |
| 2026-05-07 03:20 | -33.92371 | 151.18408 | 1660 ft | 198 kts | 341° |
| 2026-05-07 03:21 | -33.90951 | 151.18244 | 2151 ft | 217 kts | 358° |
| 2026-05-07 03:21 | -33.89421 | 151.18637 | 2644 ft | 234 kts | 14° |
| 2026-05-07 03:21 | -33.88029 | 151.19730 | 3139 ft | 245 kts | 38° |
| 2026-05-07 03:21 | -33.86738 | 151.21098 | 3632 ft | 249 kts | 36° |
| 2026-05-07 03:22 | -33.85405 | 151.22453 | 4121 ft | 252 kts | 37° |
| 2026-05-07 03:22 | -33.84065 | 151.23823 | 4618 ft | 253 kts | 36° |
| 2026-05-07 03:22 | -33.82716 | 151.25204 | 5113 ft | 256 kts | 37° |
| 2026-05-07 03:22 | -33.81344 | 151.26586 | 5604 ft | 256 kts | 31° |
| 2026-05-07 03:23 | -33.79735 | 151.27347 | 6106 ft | 245 kts | 359° |
| 2026-05-07 03:23 | -33.78036 | 151.27532 | 6593 ft | 248 kts | 358° |
| 2026-05-07 03:23 | -33.76341 | 151.27980 | 7065 ft | 259 kts | 13° |
| 2026-05-07 03:23 | -33.74692 | 151.28921 | 7549 ft | 265 kts | 22° |
| 2026-05-07 03:24 | -33.73080 | 151.29961 | 8036 ft | 260 kts | 20° |
| 2026-05-07 03:24 | -33.71466 | 151.30880 | 8531 ft | 254 kts | 17° |
| 2026-05-07 03:24 | -33.69868 | 151.31755 | 9026 ft | 251 kts | 17° |
| 2026-05-07 03:24 | -33.68293 | 151.32645 | 9531 ft | 249 kts | 17° |
| 2026-05-07 03:25 | -33.66733 | 151.33530 | 10033 ft | 247 kts | 17° |
| 2026-05-07 03:25 | -33.65181 | 151.34408 | 10500 ft | 246 kts | 16° |
| 2026-05-07 03:25 | -33.63637 | 151.35279 | 10968 ft | 244 kts | 15° |
| 2026-05-07 03:25 | -33.62110 | 151.36141 | 11451 ft | 242 kts | 14° |
| 2026-05-07 03:26 | -33.60594 | 151.36997 | 11936 ft | 240 kts | 13° |
| 2026-05-07 03:26 | -33.59091 | 151.37845 | 12431 ft | 238 kts | 13° |
| 2026-05-07 03:26 | -33.57599 | 151.38687 | 12936 ft | 235 kts | 12° |
| 2026-05-07 03:26 | -33.56121 | 151.39519 | 13444 ft | 233 kts | 11° |
| 2026-05-07 03:27 | -33.54661 | 151.40343 | 13942 ft | 231 kts | 10° |
| 2026-05-07 03:27 | -33.53215 | 151.41157 | 14393 ft | 228 kts | 9° |
| 2026-05-07 03:27 | -33.51784 | 151.41963 | 14841 ft | 226 kts | 7° |
| 2026-05-07 03:27 | -33.50377 | 151.42755 | 15307 ft | 222 kts | 7° |
| 2026-05-07 03:28 | -33.49008 | 151.43528 | 15770 ft | 219 kts | 5° |
| 2026-05-07 03:28 | -33.47627 | 151.44322 | 16243 ft | 219 kts | 5° |
| 2026-05-07 03:28 | -33.46268 | 151.45116 | 16733 ft | 216 kts | 4° |
| 2026-05-07 03:28 | -33.44922 | 151.45895 | 17219 ft | 214 kts | 2° |
| 2026-05-07 03:29 | -33.43589 | 151.46664 | 17717 ft | 211 kts | 1° |
| 2026-05-07 03:29 | -33.42254 | 151.47426 | 18097 ft | 215 kts | 0° |
| 2026-05-07 03:29 | -33.40893 | 151.48206 | 18430 ft | 219 kts | 0° |
| 2026-05-07 03:29 | -33.39510 | 151.49005 | 18727 ft | 222 kts | 1° |
| 2026-05-07 03:30 | -33.38114 | 151.49812 | 18995 ft | 226 kts | 1° |
| 2026-05-07 03:30 | -33.36650 | 151.50636 | 19006 ft | 240 kts | 2° |
| 2026-05-07 03:30 | -33.35101 | 151.51525 | 19011 ft | 253 kts | 4° |
| 2026-05-07 03:30 | -33.33493 | 151.52461 | 19014 ft | 261 kts | 4° |
| 2026-05-07 03:31 | -33.31838 | 151.53422 | 19016 ft | 267 kts | 5° |
| 2026-05-07 03:31 | -33.30148 | 151.54397 | 19018 ft | 272 kts | 5° |
| 2026-05-07 03:31 | -33.28434 | 151.55383 | 19023 ft | 275 kts | 5° |
| 2026-05-07 03:31 | -33.26699 | 151.56382 | 19023 ft | 278 kts | 5° |
| 2026-05-07 03:32 | -33.24964 | 151.57379 | 19023 ft | 280 kts | 5° |
| 2026-05-07 03:32 | -33.23197 | 151.58396 | 19023 ft | 282 kts | 6° |
| 2026-05-07 03:32 | -33.21422 | 151.59416 | 19022 ft | 283 kts | 6° |
| 2026-05-07 03:32 | -33.19643 | 151.60439 | 19021 ft | 284 kts | 6° |
| 2026-05-07 03:33 | -33.17854 | 151.61463 | 19017 ft | 285 kts | 6° |
| 2026-05-07 03:33 | -33.16059 | 151.62492 | 19015 ft | 286 kts | 6° |
| 2026-05-07 03:33 | -33.14262 | 151.63524 | 19010 ft | 287 kts | 6° |
| 2026-05-07 03:33 | -33.12462 | 151.64556 | 19006 ft | 287 kts | 6° |
| 2026-05-07 03:34 | -33.10662 | 151.65584 | 19001 ft | 287 kts | 6° |
| 2026-05-07 03:34 | -33.08862 | 151.66618 | 18998 ft | 288 kts | 6° |
| 2026-05-07 03:34 | -33.07055 | 151.67649 | 19001 ft | 288 kts | 6° |
| 2026-05-07 03:34 | -33.05244 | 151.68681 | 18997 ft | 289 kts | 7° |
| 2026-05-07 03:35 | -33.03455 | 151.69705 | 18994 ft | 289 kts | 7° |
| 2026-05-07 03:35 | -33.01616 | 151.70757 | 18986 ft | 289 kts | 7° |
| 2026-05-07 03:35 | -32.99823 | 151.71781 | 18990 ft | 290 kts | 7° |
| 2026-05-07 03:35 | -32.98005 | 151.72817 | 18990 ft | 290 kts | 7° |
| 2026-05-07 03:36 | -32.96184 | 151.73855 | 18989 ft | 290 kts | 7° |
| 2026-05-07 03:36 | -32.94361 | 151.74896 | 18984 ft | 291 kts | 7° |
| 2026-05-07 03:36 | -32.92535 | 151.75936 | 18991 ft | 291 kts | 8° |
| 2026-05-07 03:36 | -32.90707 | 151.76978 | 18979 ft | 291 kts | 8° |
| 2026-05-07 03:37 | -32.88880 | 151.78018 | 18977 ft | 291 kts | 8° |
| 2026-05-07 03:37 | -32.87052 | 151.79059 | 18975 ft | 291 kts | 8° |
| 2026-05-07 03:37 | -32.85219 | 151.80099 | 18979 ft | 292 kts | 8° |
| 2026-05-07 03:37 | -32.83385 | 151.81146 | 18976 ft | 292 kts | 8° |
| 2026-05-07 03:38 | -32.81547 | 151.82189 | 18976 ft | 292 kts | 8° |
| 2026-05-07 03:38 | -32.79697 | 151.82957 | 18978 ft | 271 kts | 354° |
| 2026-05-07 03:38 | -32.77879 | 151.83178 | 18982 ft | 260 kts | 347° |
| 2026-05-07 03:38 | -32.76068 | 151.83334 | 18974 ft | 262 kts | 348° |
| 2026-05-07 03:39 | -32.74268 | 151.83538 | 18974 ft | 264 kts | 349° |
| 2026-05-07 03:39 | -32.72438 | 151.83751 | 18973 ft | 264 kts | 349° |
| 2026-05-07 03:39 | -32.70611 | 151.83955 | 18976 ft | 264 kts | 349° |
| 2026-05-07 03:39 | -32.68779 | 151.84155 | 18976 ft | 264 kts | 349° |
| 2026-05-07 03:40 | -32.66943 | 151.84356 | 18978 ft | 265 kts | 349° |
| 2026-05-07 03:40 | -32.65099 | 151.84560 | 18981 ft | 266 kts | 349° |
| 2026-05-07 03:40 | -32.63249 | 151.84764 | 18982 ft | 267 kts | 349° |
| 2026-05-07 03:40 | -32.61397 | 151.84968 | 18985 ft | 268 kts | 349° |
| 2026-05-07 03:41 | -32.59543 | 151.85171 | 18989 ft | 268 kts | 349° |
| 2026-05-07 03:41 | -32.57687 | 151.85379 | 18994 ft | 268 kts | 349° |
| 2026-05-07 03:41 | -32.55826 | 151.85583 | 18991 ft | 268 kts | 349° |
| 2026-05-07 03:41 | -32.53984 | 151.85783 | 18998 ft | 269 kts | 350° |
| 2026-05-07 03:42 | -32.52112 | 151.85992 | 18996 ft | 270 kts | 350° |
| 2026-05-07 03:42 | -32.50236 | 151.86196 | 19003 ft | 271 kts | 350° |
| 2026-05-07 03:42 | -32.48355 | 151.86402 | 19009 ft | 271 kts | 350° |
| 2026-05-07 03:42 | -32.46473 | 151.86611 | 19004 ft | 272 kts | 350° |
| 2026-05-07 03:43 | -32.44584 | 151.86819 | 19009 ft | 272 kts | 350° |
| 2026-05-07 03:43 | -32.42689 | 151.87106 | 19013 ft | 282 kts | 358° |
| 2026-05-07 03:43 | -32.40776 | 151.87759 | 19010 ft | 289 kts | 3° |
| 2026-05-07 03:43 | -32.38855 | 151.88494 | 19012 ft | 288 kts | 2° |
| 2026-05-07 03:44 | -32.36961 | 151.89182 | 19012 ft | 287 kts | 1° |
| 2026-05-07 03:44 | -32.35043 | 151.89848 | 19009 ft | 287 kts | 1° |
| 2026-05-07 03:44 | -32.33127 | 151.90522 | 19012 ft | 287 kts | 2° |
| 2026-05-07 03:44 | -32.31210 | 151.91207 | 19014 ft | 288 kts | 2° |
| 2026-05-07 03:45 | -32.29284 | 151.91891 | 19014 ft | 288 kts | 2° |
| 2026-05-07 03:45 | -32.27358 | 151.92577 | 19009 ft | 289 kts | 2° |
| 2026-05-07 03:45 | -32.25435 | 151.93253 | 19018 ft | 288 kts | 2° |
| 2026-05-07 03:45 | -32.23516 | 151.93938 | 19013 ft | 288 kts | 2° |
| 2026-05-07 03:46 | -32.21593 | 151.94619 | 19011 ft | 289 kts | 2° |
| 2026-05-07 03:46 | -32.19686 | 151.95292 | 19011 ft | 290 kts | 2° |
| 2026-05-07 03:46 | -32.17749 | 151.95978 | 19009 ft | 291 kts | 3° |
| 2026-05-07 03:46 | -32.15805 | 151.96667 | 19011 ft | 292 kts | 3° |
| 2026-05-07 03:47 | -32.13856 | 151.97355 | 19007 ft | 293 kts | 3° |
| 2026-05-07 03:47 | -32.11902 | 151.98046 | 19005 ft | 293 kts | 3° |
| 2026-05-07 03:47 | -32.09949 | 151.98737 | 19006 ft | 293 kts | 3° |
| 2026-05-07 03:47 | -32.07992 | 151.99428 | 19006 ft | 294 kts | 3° |
| 2026-05-07 03:48 | -32.06031 | 152.00124 | 19007 ft | 296 kts | 5° |
| 2026-05-07 03:48 | -32.04106 | 152.01158 | 19006 ft | 312 kts | 19° |
| 2026-05-07 03:48 | -32.02293 | 152.02627 | 19002 ft | 318 kts | 25° |
| 2026-05-07 03:48 | -32.00514 | 152.04171 | 19007 ft | 317 kts | 24° |
| 2026-05-07 03:49 | -31.98718 | 152.05610 | 19005 ft | 315 kts | 21° |
| 2026-05-07 03:49 | -31.96891 | 152.07031 | 19006 ft | 315 kts | 22° |
| 2026-05-07 03:49 | -31.95074 | 152.08479 | 18999 ft | 315 kts | 23° |
| 2026-05-07 03:49 | -31.93265 | 152.09940 | 19001 ft | 314 kts | 23° |
| 2026-05-07 03:50 | -31.91453 | 152.11389 | 18997 ft | 315 kts | 22° |
| 2026-05-07 03:50 | -31.89640 | 152.12831 | 18997 ft | 315 kts | 23° |
| 2026-05-07 03:50 | -31.87831 | 152.14277 | 19004 ft | 313 kts | 23° |
| 2026-05-07 03:50 | -31.86029 | 152.15714 | 19001 ft | 314 kts | 23° |
| 2026-05-07 03:51 | -31.84220 | 152.17155 | 18998 ft | 314 kts | 22° |
| 2026-05-07 03:51 | -31.82414 | 152.18594 | 19000 ft | 314 kts | 23° |
| 2026-05-07 03:51 | -31.80601 | 152.20042 | 18993 ft | 315 kts | 23° |
| 2026-05-07 03:51 | -31.78782 | 152.21486 | 18992 ft | 316 kts | 23° |
| 2026-05-07 03:52 | -31.76962 | 152.22933 | 18989 ft | 315 kts | 23° |
| 2026-05-07 03:52 | -31.75146 | 152.24382 | 18993 ft | 315 kts | 24° |
| 2026-05-07 03:52 | -31.73329 | 152.25828 | 18990 ft | 315 kts | 24° |
| 2026-05-07 03:52 | -31.71511 | 152.27268 | 18987 ft | 315 kts | 24° |
| 2026-05-07 03:53 | -31.69697 | 152.28712 | 18985 ft | 315 kts | 24° |
| 2026-05-07 03:53 | -31.67883 | 152.30151 | 18989 ft | 315 kts | 24° |
| 2026-05-07 03:53 | -31.66086 | 152.31577 | 18989 ft | 315 kts | 24° |
| 2026-05-07 03:53 | -31.64266 | 152.33019 | 18984 ft | 316 kts | 24° |
| 2026-05-07 03:54 | -31.62448 | 152.34464 | 18989 ft | 316 kts | 24° |
| 2026-05-07 03:54 | -31.60624 | 152.35907 | 18986 ft | 315 kts | 24° |
| 2026-05-07 03:54 | -31.58806 | 152.37345 | 18993 ft | 315 kts | 24° |
| 2026-05-07 03:54 | -31.56983 | 152.38789 | 18987 ft | 316 kts | 24° |
| 2026-05-07 03:55 | -31.55162 | 152.40229 | 18991 ft | 316 kts | 24° |
| 2026-05-07 03:55 | -31.53338 | 152.41673 | 18984 ft | 316 kts | 24° |
| 2026-05-07 03:55 | -31.51515 | 152.43114 | 18983 ft | 316 kts | 24° |
| 2026-05-07 03:55 | -31.49687 | 152.44558 | 18985 ft | 316 kts | 24° |
| 2026-05-07 03:56 | -31.47886 | 152.45979 | 18986 ft | 316 kts | 24° |
| 2026-05-07 03:56 | -31.46056 | 152.47425 | 18982 ft | 317 kts | 24° |
| 2026-05-07 03:56 | -31.44225 | 152.48869 | 18983 ft | 317 kts | 24° |
| 2026-05-07 03:56 | -31.42393 | 152.50315 | 18982 ft | 317 kts | 24° |
| 2026-05-07 03:57 | -31.40560 | 152.51759 | 18981 ft | 317 kts | 24° |
| 2026-05-07 03:57 | -31.38728 | 152.53205 | 18979 ft | 317 kts | 25° |
| 2026-05-07 03:57 | -31.36894 | 152.54648 | 18977 ft | 317 kts | 24° |
| 2026-05-07 03:57 | -31.35060 | 152.56085 | 18975 ft | 317 kts | 24° |
| 2026-05-07 03:58 | -31.33232 | 152.57527 | 18976 ft | 317 kts | 24° |
| 2026-05-07 03:58 | -31.31399 | 152.58972 | 18969 ft | 317 kts | 24° |
| 2026-05-07 03:58 | -31.29583 | 152.60398 | 18979 ft | 317 kts | 24° |
| 2026-05-07 03:58 | -31.27753 | 152.61835 | 18969 ft | 317 kts | 24° |
| 2026-05-07 03:59 | -31.25920 | 152.63274 | 18969 ft | 317 kts | 24° |
| 2026-05-07 03:59 | -31.24089 | 152.64710 | 18971 ft | 317 kts | 24° |
| 2026-05-07 03:59 | -31.22261 | 152.66145 | 18971 ft | 317 kts | 24° |
| 2026-05-07 03:59 | -31.20429 | 152.67582 | 18973 ft | 316 kts | 24° |
| 2026-05-07 04:00 | -31.18600 | 152.69014 | 18967 ft | 316 kts | 24° |
| 2026-05-07 04:00 | -31.16773 | 152.70446 | 18968 ft | 317 kts | 24° |
| 2026-05-07 04:00 | -31.14941 | 152.71880 | 18998 ft | 315 kts | 26° |
| 2026-05-07 04:00 | -31.13140 | 152.73292 | 18982 ft | 315 kts | 24° |
| 2026-05-07 04:01 | -31.11316 | 152.74715 | 18978 ft | 316 kts | 24° |
| 2026-05-07 04:01 | -31.09484 | 152.76148 | 18975 ft | 317 kts | 24° |
| 2026-05-07 04:01 | -31.07652 | 152.77581 | 18972 ft | 317 kts | 25° |
| 2026-05-07 04:01 | -31.05804 | 152.78968 | 18973 ft | 312 kts | 19° |
| 2026-05-07 04:02 | -31.03843 | 152.79946 | 18976 ft | 304 kts | 10° |
| 2026-05-07 04:02 | -31.01859 | 152.80796 | 18977 ft | 304 kts | 10° |
| 2026-05-07 04:02 | -30.99880 | 152.81679 | 18974 ft | 305 kts | 11° |
| 2026-05-07 04:02 | -30.97906 | 152.82584 | 18973 ft | 305 kts | 11° |
| 2026-05-07 04:03 | -30.95928 | 152.83477 | 18967 ft | 305 kts | 11° |
| 2026-05-07 04:03 | -30.93977 | 152.84352 | 18966 ft | 305 kts | 11° |
| 2026-05-07 04:03 | -30.91999 | 152.85241 | 18961 ft | 305 kts | 11° |
| 2026-05-07 04:03 | -30.90023 | 152.86131 | 18964 ft | 304 kts | 11° |
| 2026-05-07 04:04 | -30.88049 | 152.87019 | 18964 ft | 304 kts | 11° |
| 2026-05-07 04:04 | -30.86078 | 152.87906 | 18963 ft | 304 kts | 11° |
| 2026-05-07 04:04 | -30.84103 | 152.88792 | 18965 ft | 304 kts | 12° |
| 2026-05-07 04:04 | -30.82126 | 152.89678 | 18961 ft | 304 kts | 12° |
| 2026-05-07 04:05 | -30.80149 | 152.90569 | 18962 ft | 304 kts | 12° |
| 2026-05-07 04:05 | -30.78168 | 152.91457 | 18960 ft | 305 kts | 12° |
| 2026-05-07 04:05 | -30.76215 | 152.92332 | 18960 ft | 304 kts | 12° |
| 2026-05-07 04:05 | -30.74240 | 152.93220 | 18963 ft | 304 kts | 12° |
| 2026-05-07 04:06 | -30.72269 | 152.94104 | 18960 ft | 304 kts | 12° |
| 2026-05-07 04:06 | -30.70298 | 152.94985 | 18963 ft | 303 kts | 12° |
| 2026-05-07 04:06 | -30.68329 | 152.95867 | 18960 ft | 303 kts | 12° |
| 2026-05-07 04:06 | -30.66363 | 152.96747 | 18961 ft | 303 kts | 12° |
| 2026-05-07 04:07 | -30.64398 | 152.97626 | 18962 ft | 302 kts | 12° |
| 2026-05-07 04:07 | -30.63069 | 152.98221 | 18960 ft | 302 kts | 12° |
| 2026-05-07 04:07 | -30.61109 | 152.99097 | 18962 ft | 302 kts | 12° |
| 2026-05-07 04:07 | -30.59169 | 152.99965 | 18950 ft | 302 kts | 12° |
| 2026-05-07 04:08 | -30.57210 | 153.00838 | 18962 ft | 302 kts | 12° |
| 2026-05-07 04:08 | -30.55248 | 153.01715 | 18960 ft | 302 kts | 12° |
| 2026-05-07 04:08 | -30.53289 | 153.02590 | 18956 ft | 301 kts | 12° |
| 2026-05-07 04:08 | -30.51332 | 153.03462 | 18953 ft | 301 kts | 12° |
| 2026-05-07 04:09 | -30.49375 | 153.04335 | 18953 ft | 301 kts | 12° |
| 2026-05-07 04:09 | -30.47420 | 153.05206 | 18953 ft | 301 kts | 12° |
| 2026-05-07 04:09 | -30.45466 | 153.06077 | 18952 ft | 301 kts | 12° |
| 2026-05-07 04:09 | -30.43513 | 153.06947 | 18948 ft | 300 kts | 12° |
| 2026-05-07 04:10 | -30.41560 | 153.07816 | 18950 ft | 300 kts | 12° |
| 2026-05-07 04:10 | -30.39608 | 153.08685 | 18948 ft | 300 kts | 12° |
| 2026-05-07 04:10 | -30.37657 | 153.09552 | 18947 ft | 300 kts | 12° |
| 2026-05-07 04:10 | -30.35709 | 153.10418 | 18950 ft | 300 kts | 13° |
| 2026-05-07 04:11 | -30.33761 | 153.11284 | 18950 ft | 300 kts | 13° |
| 2026-05-07 04:11 | -30.31811 | 153.12132 | 18949 ft | 297 kts | 9° |
| 2026-05-07 04:11 | -30.29830 | 153.12755 | 18949 ft | 294 kts | 5° |
| 2026-05-07 04:11 | -30.27845 | 153.13323 | 18946 ft | 294 kts | 6° |
| 2026-05-07 04:12 | -30.25888 | 153.13908 | 18951 ft | 294 kts | 6° |
| 2026-05-07 04:12 | -30.23883 | 153.14521 | 18948 ft | 294 kts | 6° |
| 2026-05-07 04:12 | -30.21930 | 153.15112 | 18949 ft | 294 kts | 6° |
| 2026-05-07 04:12 | -30.19952 | 153.15708 | 18949 ft | 293 kts | 6° |
| 2026-05-07 04:13 | -30.17973 | 153.16301 | 18951 ft | 293 kts | 6° |
| 2026-05-07 04:13 | -30.15997 | 153.16897 | 18951 ft | 293 kts | 6° |
| 2026-05-07 04:13 | -30.14024 | 153.17490 | 18953 ft | 293 kts | 6° |
| 2026-05-07 04:13 | -30.12049 | 153.18084 | 18953 ft | 293 kts | 6° |
| 2026-05-07 04:14 | -30.10072 | 153.18679 | 18953 ft | 293 kts | 6° |
| 2026-05-07 04:14 | -30.08098 | 153.19272 | 18953 ft | 293 kts | 6° |
| 2026-05-07 04:14 | -30.06125 | 153.19864 | 18954 ft | 293 kts | 6° |
| 2026-05-07 04:14 | -30.04152 | 153.20457 | 18953 ft | 293 kts | 6° |
| 2026-05-07 04:15 | -30.02184 | 153.21046 | 18955 ft | 292 kts | 6° |
| 2026-05-07 04:15 | -30.00218 | 153.21637 | 18955 ft | 292 kts | 6° |
| 2026-05-07 04:15 | -29.98247 | 153.22228 | 18962 ft | 292 kts | 6° |
| 2026-05-07 04:15 | -29.96285 | 153.22816 | 18958 ft | 291 kts | 6° |
| 2026-05-07 04:16 | -29.94322 | 153.23403 | 18957 ft | 291 kts | 6° |
| 2026-05-07 04:16 | -29.92362 | 153.23990 | 18956 ft | 291 kts | 6° |
| 2026-05-07 04:16 | -29.90426 | 153.24571 | 18959 ft | 291 kts | 6° |
| 2026-05-07 04:16 | -29.88469 | 153.25157 | 18959 ft | 291 kts | 6° |
| 2026-05-07 04:17 | -29.86504 | 153.25743 | 18957 ft | 290 kts | 6° |
| 2026-05-07 04:17 | -29.84547 | 153.26328 | 18959 ft | 290 kts | 6° |
| 2026-05-07 04:17 | -29.82589 | 153.26914 | 18959 ft | 290 kts | 6° |
| 2026-05-07 04:17 | -29.80634 | 153.27499 | 18957 ft | 290 kts | 6° |
| 2026-05-07 04:18 | -29.78676 | 153.28082 | 18962 ft | 290 kts | 6° |
| 2026-05-07 04:18 | -29.76724 | 153.28665 | 18957 ft | 290 kts | 6° |
| 2026-05-07 04:18 | -29.74771 | 153.29248 | 18963 ft | 289 kts | 5° |
| 2026-05-07 04:18 | -29.72822 | 153.29828 | 18955 ft | 290 kts | 6° |
| 2026-05-07 04:19 | -29.70865 | 153.30412 | 18708 ft | 291 kts | 6° |
| 2026-05-07 04:19 | -29.68888 | 153.30997 | 18346 ft | 296 kts | 6° |
| 2026-05-07 04:19 | -29.66882 | 153.31598 | 17921 ft | 299 kts | 6° |
| 2026-05-07 04:19 | -29.64860 | 153.32200 | 17525 ft | 301 kts | 7° |
| 2026-05-07 04:20 | -29.62831 | 153.32807 | 17124 ft | 302 kts | 7° |
| 2026-05-07 04:20 | -29.60797 | 153.33410 | 16725 ft | 302 kts | 7° |
| 2026-05-07 04:20 | -29.58756 | 153.34015 | 16325 ft | 303 kts | 7° |
| 2026-05-07 04:21 | -29.54677 | 153.35231 | 15525 ft | 303 kts | 8° |
| 2026-05-07 04:21 | -29.52664 | 153.35827 | 15130 ft | 303 kts | 8° |
| 2026-05-07 04:21 | -29.50617 | 153.36434 | 14730 ft | 303 kts | 8° |
| 2026-05-07 04:21 | -29.48573 | 153.37042 | 14326 ft | 303 kts | 8° |
| 2026-05-07 04:22 | -29.46524 | 153.37649 | 13925 ft | 303 kts | 9° |
| 2026-05-07 04:22 | -29.44475 | 153.38258 | 13504 ft | 303 kts | 9° |
| 2026-05-07 04:22 | -29.42439 | 153.38864 | 13094 ft | 302 kts | 9° |
| 2026-05-07 04:22 | -29.40440 | 153.39455 | 12704 ft | 298 kts | 9° |
| 2026-05-07 04:23 | -29.38448 | 153.40044 | 12313 ft | 294 kts | 9° |
| 2026-05-07 04:23 | -29.36478 | 153.40629 | 11927 ft | 291 kts | 9° |
| 2026-05-07 04:23 | -29.34525 | 153.41204 | 11539 ft | 289 kts | 9° |
| 2026-05-07 04:23 | -29.32589 | 153.41779 | 11159 ft | 287 kts | 9° |
| 2026-05-07 04:24 | -29.30660 | 153.42347 | 10782 ft | 285 kts | 9° |
| 2026-05-07 04:24 | -29.28745 | 153.42913 | 10409 ft | 284 kts | 9° |
| 2026-05-07 04:24 | -29.26839 | 153.43475 | 10033 ft | 282 kts | 9° |
| 2026-05-07 04:24 | -29.24944 | 153.44035 | 9646 ft | 280 kts | 10° |
| 2026-05-07 04:25 | -29.23060 | 153.44593 | 9267 ft | 278 kts | 10° |
| 2026-05-07 04:25 | -29.21192 | 153.45146 | 8901 ft | 277 kts | 10° |
| 2026-05-07 04:25 | -29.19330 | 153.45692 | 8536 ft | 274 kts | 10° |
| 2026-05-07 04:25 | -29.17508 | 153.46234 | 8178 ft | 267 kts | 10° |
| 2026-05-07 04:26 | -29.15760 | 153.46750 | 7838 ft | 259 kts | 10° |
| 2026-05-07 04:26 | -29.14028 | 153.47257 | 7498 ft | 255 kts | 10° |
| 2026-05-07 04:26 | -29.12314 | 153.47763 | 7166 ft | 253 kts | 10° |
| 2026-05-07 04:26 | -29.10614 | 153.48261 | 6833 ft | 251 kts | 10° |
| 2026-05-07 04:27 | -29.08931 | 153.48758 | 6502 ft | 250 kts | 10° |
| 2026-05-07 04:27 | -29.07252 | 153.49250 | 6163 ft | 249 kts | 10° |
| 2026-05-07 04:27 | -29.05581 | 153.49744 | 5828 ft | 247 kts | 11° |
| 2026-05-07 04:27 | -29.03919 | 153.50232 | 5501 ft | 246 kts | 11° |
| 2026-05-07 04:28 | -29.02279 | 153.50716 | 5180 ft | 240 kts | 11° |
| 2026-05-07 04:28 | -29.00699 | 153.51182 | 4859 ft | 228 kts | 11° |
| 2026-05-07 04:28 | -28.99195 | 153.51622 | 4526 ft | 218 kts | 11° |
| 2026-05-07 04:28 | -28.97744 | 153.52049 | 4191 ft | 213 kts | 11° |
| 2026-05-07 04:29 | -28.96322 | 153.52465 | 3862 ft | 210 kts | 11° |
| 2026-05-07 04:29 | -28.94913 | 153.52878 | 3538 ft | 208 kts | 11° |
| 2026-05-07 04:29 | -28.93641 | 153.53635 | 3214 ft | 210 kts | 40° |
| 2026-05-07 04:29 | -28.92640 | 153.54851 | 2884 ft | 210 kts | 46° |
| 2026-05-07 04:30 | -28.91682 | 153.56073 | 2570 ft | 208 kts | 46° |
| 2026-05-07 04:30 | -28.90716 | 153.57302 | 2243 ft | 207 kts | 46° |
| 2026-05-07 04:30 | -28.89759 | 153.58521 | 1916 ft | 206 kts | 47° |
| 2026-05-07 04:30 | -28.88803 | 153.59732 | 1580 ft | 204 kts | 47° |
| 2026-05-07 04:31 | -28.87856 | 153.60922 | 1261 ft | 199 kts | 46° |
| 2026-05-07 04:31 | -28.86811 | 153.61871 | 994 ft | 187 kts | 21° |
| 2026-05-07 04:31 | -28.85675 | 153.62317 | 999 ft | 155 kts | 12° |
| 2026-05-07 04:31 | -28.84683 | 153.62340 | 895 ft | 139 kts | 341° |
| 2026-05-07 04:32 | -28.83804 | 153.61994 | 825 ft | 128 kts | 334° |
| 2026-05-07 04:32 | -28.83066 | 153.61467 | 698 ft | 122 kts | 298° |
| 2026-05-07 04:32 | -28.82840 | 153.60577 | 651 ft | 116 kts | 279° |
| 2026-05-07 04:32 | -28.82650 | 153.59682 | 648 ft | 114 kts | 278° |
| 2026-05-07 04:33 | -28.82653 | 153.58806 | 488 ft | 112 kts | 261° |
| 2026-05-07 04:33 | -28.82847 | 153.57965 | 275 ft | 106 kts | 253° |
| 2026-05-07 04:33 | -28.83061 | 153.57155 | 63 ft | 106 kts | 253° |
| 2026-05-07 04:33 | -28.83246 | 153.56417 | 12 ft | 76 kts | 254° |
| 2026-05-07 04:34 | -28.83304 | 153.56177 | 12 ft | 29 kts | 251° |
| 2026-05-07 04:34 | -28.83378 | 153.55923 | 12 ft | 33 kts | 252° |
| 2026-05-07 04:34 | -28.83442 | 153.55684 | 11 ft | 29 kts | 252° |
| 2026-05-07 04:34 | -28.83501 | 153.55490 | 10 ft | 20 kts | 219° |
| 2026-05-07 04:35 | -28.83614 | 153.55510 | 11 ft | 15 kts | 166° |
| 2026-05-07 04:35 | -28.83683 | 153.55531 | 11 ft | 9 kts | 182° |
| 2026-05-07 04:35 | -28.83734 | 153.55507 | 11 ft | 7 kts | 211° |
| 2026-05-07 04:35 | -28.83738 | 153.55500 | 11 ft | 0 kts | 273° |
| 2026-05-07 04:36 | -28.83734 | 153.55494 | 11 ft | 0 kts | 338° |
| 2026-05-07 04:36 | -28.83733 | 153.55493 | 11 ft | 1 kts | 343° |
| 2026-05-07 04:36 | -28.83730 | 153.55493 | 11 ft | 0 kts | 18° |